sensor_id;sensor_type;location;lat;lon;timestamp;pressure;altitude;pressure_sealevel;temperature;humidity
63090;BME280;49174;43.198;27.824;2023-07-30T00:00:02;101302.97;;;19.96;100.00
63090;BME280;49174;43.198;27.824;2023-07-30T00:02:28;101301.22;;;19.90;100.00
63090;BME280;49174;43.198;27.824;2023-07-30T00:04:53;101304.09;;;19.83;100.00
63090;BME280;49174;43.198;27.824;2023-07-30T00:07:19;101297.69;;;19.78;100.00
63090;BME280;49174;43.198;27.824;2023-07-30T00:09:45;101297.63;;;19.73;100.00
63090;BME280;49174;43.198;27.824;2023-07-30T00:12:10;101293.47;;;19.70;100.00
63090;BME280;49174;43.198;27.824;2023-07-30T00:14:36;101296.91;;;19.66;100.00
63090;BME280;49174;43.198;27.824;2023-07-30T00:17:01;101292.13;;;19.61;100.00
63090;BME280;49174;43.198;27.824;2023-07-30T00:19:27;101287.41;;;19.56;100.00
63090;BME280;49174;43.198;27.824;2023-07-30T00:21:52;101289.31;;;19.56;100.00
63090;BME280;49174;43.198;27.824;2023-07-30T00:24:18;101284.56;;;19.51;100.00
63090;BME280;49174;43.198;27.824;2023-07-30T00:26:44;101289.09;;;19.46;100.00
63090;BME280;49174;43.198;27.824;2023-07-30T00:29:09;101287.69;;;19.43;100.00
63090;BME280;49174;43.198;27.824;2023-07-30T00:31:35;101282.81;;;19.45;100.00
63090;BME280;49174;43.198;27.824;2023-07-30T00:34:01;101284.63;;;19.39;100.00
63090;BME280;49174;43.198;27.824;2023-07-30T00:36:26;101289.38;;;19.32;100.00
63090;BME280;49174;43.198;27.824;2023-07-30T00:38:52;101290.19;;;19.33;100.00
63090;BME280;49174;43.198;27.824;2023-07-30T00:41:18;101284.50;;;19.34;100.00
63090;BME280;49174;43.198;27.824;2023-07-30T00:43:43;101284.41;;;19.29;100.00
63090;BME280;49174;43.198;27.824;2023-07-30T00:46:08;101280.09;;;19.33;100.00
63090;BME280;49174;43.198;27.824;2023-07-30T00:48:34;101287.25;;;19.34;100.00
63090;BME280;49174;43.198;27.824;2023-07-30T00:51:00;101285.94;;;19.37;100.00
63090;BME280;49174;43.198;27.824;2023-07-30T00:53:26;101274.38;;;19.35;100.00
63090;BME280;49174;43.198;27.824;2023-07-30T00:55:52;101281.44;;;19.31;100.00
63090;BME280;49174;43.198;27.824;2023-07-30T00:58:21;101279.16;;;19.28;100.00
63090;BME280;49174;43.198;27.824;2023-07-30T01:00:47;101278.56;;;19.26;100.00
63090;BME280;49174;43.198;27.824;2023-07-30T01:03:13;101283.34;;;19.18;100.00
63090;BME280;49174;43.198;27.824;2023-07-30T01:05:38;101280.00;;;19.16;100.00
63090;BME280;49174;43.198;27.824;2023-07-30T01:08:04;101286.56;;;19.15;100.00
63090;BME280;49174;43.198;27.824;2023-07-30T01:10:30;101271.34;;;19.08;100.00
63090;BME280;49174;43.198;27.824;2023-07-30T01:13:01;101274.09;;;19.08;100.00
63090;BME280;49174;43.198;27.824;2023-07-30T01:15:28;101278.13;;;19.05;100.00
63090;BME280;49174;43.198;27.824;2023-07-30T01:17:55;101279.44;;;19.03;100.00
63090;BME280;49174;43.198;27.824;2023-07-30T01:20:21;101282.66;;;19.00;100.00
63090;BME280;49174;43.198;27.824;2023-07-30T01:22:47;101280.78;;;19.00;100.00
63090;BME280;49174;43.198;27.824;2023-07-30T01:25:14;101282.91;;;18.98;100.00
63090;BME280;49174;43.198;27.824;2023-07-30T01:27:42;101274.09;;;18.96;100.00
63090;BME280;49174;43.198;27.824;2023-07-30T01:30:17;101277.91;;;18.95;100.00
63090;BME280;49174;43.198;27.824;2023-07-30T01:32:44;101277.66;;;18.96;100.00
63090;BME280;49174;43.198;27.824;2023-07-30T01:35:13;101282.09;;;18.97;100.00
63090;BME280;49174;43.198;27.824;2023-07-30T01:37:39;101268.88;;;18.94;100.00
63090;BME280;49174;43.198;27.824;2023-07-30T01:40:07;101267.94;;;18.89;100.00
63090;BME280;49174;43.198;27.824;2023-07-30T01:42:34;101274.25;;;18.89;100.00
63090;BME280;49174;43.198;27.824;2023-07-30T01:44:59;101275.91;;;18.90;100.00
63090;BME280;49174;43.198;27.824;2023-07-30T01:47:25;101279.44;;;18.91;100.00
63090;BME280;49174;43.198;27.824;2023-07-30T01:49:50;101275.41;;;18.93;100.00
63090;BME280;49174;43.198;27.824;2023-07-30T01:52:16;101271.84;;;18.93;100.00
63090;BME280;49174;43.198;27.824;2023-07-30T01:54:41;101271.63;;;18.94;100.00
63090;BME280;49174;43.198;27.824;2023-07-30T01:57:07;101272.44;;;18.95;100.00
63090;BME280;49174;43.198;27.824;2023-07-30T01:59:33;101281.72;;;18.94;100.00
63090;BME280;49174;43.198;27.824;2023-07-30T02:01:58;101280.66;;;18.95;100.00
63090;BME280;49174;43.198;27.824;2023-07-30T02:04:24;101273.03;;;18.97;100.00
63090;BME280;49174;43.198;27.824;2023-07-30T02:06:49;101271.63;;;18.94;100.00
63090;BME280;49174;43.198;27.824;2023-07-30T02:09:15;101269.13;;;18.93;100.00
63090;BME280;49174;43.198;27.824;2023-07-30T02:11:40;101263.66;;;18.93;100.00
63090;BME280;49174;43.198;27.824;2023-07-30T02:14:06;101268.03;;;18.94;100.00
63090;BME280;49174;43.198;27.824;2023-07-30T02:16:31;101267.47;;;18.92;100.00
63090;BME280;49174;43.198;27.824;2023-07-30T02:18:57;101274.72;;;18.86;100.00
63090;BME280;49174;43.198;27.824;2023-07-30T02:21:22;101271.28;;;18.79;100.00
63090;BME280;49174;43.198;27.824;2023-07-30T02:23:48;101278.03;;;18.77;100.00
63090;BME280;49174;43.198;27.824;2023-07-30T02:26:13;101282.31;;;18.72;100.00
63090;BME280;49174;43.198;27.824;2023-07-30T02:28:39;101280.88;;;18.70;100.00
63090;BME280;49174;43.198;27.824;2023-07-30T02:31:06;101278.84;;;18.65;100.00
63090;BME280;49174;43.198;27.824;2023-07-30T02:33:35;101279.31;;;18.62;100.00
63090;BME280;49174;43.198;27.824;2023-07-30T02:36:00;101273.25;;;18.60;100.00
63090;BME280;49174;43.198;27.824;2023-07-30T02:38:26;101277.66;;;18.61;100.00
63090;BME280;49174;43.198;27.824;2023-07-30T02:40:51;101282.53;;;18.59;100.00
63090;BME280;49174;43.198;27.824;2023-07-30T02:43:17;101291.91;;;18.51;100.00
63090;BME280;49174;43.198;27.824;2023-07-30T02:45:42;101286.09;;;18.48;100.00
63090;BME280;49174;43.198;27.824;2023-07-30T02:48:08;101288.81;;;18.48;100.00
63090;BME280;49174;43.198;27.824;2023-07-30T02:50:34;101295.72;;;18.50;100.00
63090;BME280;49174;43.198;27.824;2023-07-30T02:53:00;101296.28;;;18.52;100.00
63090;BME280;49174;43.198;27.824;2023-07-30T02:55:25;101294.41;;;18.53;100.00
63090;BME280;49174;43.198;27.824;2023-07-30T02:57:51;101290.00;;;18.52;100.00
63090;BME280;49174;43.198;27.824;2023-07-30T03:00:17;101298.31;;;18.57;100.00
63090;BME280;49174;43.198;27.824;2023-07-30T03:02:42;101295.38;;;18.59;100.00
63090;BME280;49174;43.198;27.824;2023-07-30T03:05:08;101293.81;;;18.63;100.00
63090;BME280;49174;43.198;27.824;2023-07-30T03:07:34;101289.44;;;18.62;100.00
63090;BME280;49174;43.198;27.824;2023-07-30T03:09:59;101293.69;;;18.58;100.00
63090;BME280;49174;43.198;27.824;2023-07-30T03:12:25;101295.94;;;18.61;100.00
63090;BME280;49174;43.198;27.824;2023-07-30T03:14:50;101294.06;;;18.61;100.00
63090;BME280;49174;43.198;27.824;2023-07-30T03:17:16;101292.63;;;18.59;100.00
63090;BME280;49174;43.198;27.824;2023-07-30T03:19:41;101293.34;;;18.54;100.00
63090;BME280;49174;43.198;27.824;2023-07-30T03:22:07;101287.13;;;18.47;100.00
63090;BME280;49174;43.198;27.824;2023-07-30T03:24:32;101300.09;;;18.51;100.00
63090;BME280;49174;43.198;27.824;2023-07-30T03:26:58;101291.69;;;18.53;100.00
63090;BME280;49174;43.198;27.824;2023-07-30T03:29:23;101293.34;;;18.54;100.00
63090;BME280;49174;43.198;27.824;2023-07-30T03:31:49;101297.72;;;18.55;100.00
63090;BME280;49174;43.198;27.824;2023-07-30T03:34:14;101302.28;;;18.61;100.00
63090;BME280;49174;43.198;27.824;2023-07-30T03:36:40;101304.16;;;18.61;100.00
63090;BME280;49174;43.198;27.824;2023-07-30T03:39:08;101304.28;;;18.66;100.00
63090;BME280;49174;43.198;27.824;2023-07-30T03:41:36;101307.81;;;18.66;100.00
63090;BME280;49174;43.198;27.824;2023-07-30T03:44:02;101308.69;;;18.67;100.00
63090;BME280;49174;43.198;27.824;2023-07-30T03:46:27;101305.22;;;18.71;100.00
63090;BME280;49174;43.198;27.824;2023-07-30T03:48:52;101295.13;;;18.72;100.00
63090;BME280;49174;43.198;27.824;2023-07-30T03:51:18;101305.38;;;18.77;100.00
63090;BME280;49174;43.198;27.824;2023-07-30T03:53:44;101303.38;;;18.84;100.00
63090;BME280;49174;43.198;27.824;2023-07-30T03:56:09;101302.88;;;18.87;100.00
63090;BME280;49174;43.198;27.824;2023-07-30T03:58:35;101298.97;;;18.94;100.00
63090;BME280;49174;43.198;27.824;2023-07-30T04:01:01;101306.44;;;18.99;100.00
63090;BME280;49174;43.198;27.824;2023-07-30T04:03:27;101299.66;;;19.02;100.00
63090;BME280;49174;43.198;27.824;2023-07-30T04:05:52;101299.31;;;18.98;100.00
63090;BME280;49174;43.198;27.824;2023-07-30T04:08:18;101295.50;;;18.99;100.00
63090;BME280;49174;43.198;27.824;2023-07-30T04:10:43;101295.63;;;19.04;100.00
63090;BME280;49174;43.198;27.824;2023-07-30T04:13:09;101300.00;;;19.05;100.00
63090;BME280;49174;43.198;27.824;2023-07-30T04:15:34;101296.44;;;19.05;100.00
63090;BME280;49174;43.198;27.824;2023-07-30T04:18:00;101296.06;;;19.13;100.00
63090;BME280;49174;43.198;27.824;2023-07-30T04:20:25;101305.72;;;19.15;100.00
63090;BME280;49174;43.198;27.824;2023-07-30T04:22:51;101301.44;;;19.19;100.00
63090;BME280;49174;43.198;27.824;2023-07-30T04:25:17;101302.81;;;19.22;100.00
63090;BME280;49174;43.198;27.824;2023-07-30T04:27:43;101303.78;;;19.28;100.00
63090;BME280;49174;43.198;27.824;2023-07-30T04:30:09;101308.03;;;19.35;100.00
63090;BME280;49174;43.198;27.824;2023-07-30T04:32:34;101308.97;;;19.41;100.00
63090;BME280;49174;43.198;27.824;2023-07-30T04:35:01;101305.53;;;19.46;100.00
63090;BME280;49174;43.198;27.824;2023-07-30T04:37:28;101304.22;;;19.48;100.00
63090;BME280;49174;43.198;27.824;2023-07-30T04:39:54;101302.63;;;19.52;100.00
63090;BME280;49174;43.198;27.824;2023-07-30T04:42:19;101310.38;;;19.55;100.00
63090;BME280;49174;43.198;27.824;2023-07-30T04:44:45;101304.66;;;19.57;100.00
63090;BME280;49174;43.198;27.824;2023-07-30T04:47:10;101309.88;;;19.58;100.00
63090;BME280;49174;43.198;27.824;2023-07-30T04:49:36;101313.34;;;19.66;100.00
63090;BME280;49174;43.198;27.824;2023-07-30T04:52:03;101320.94;;;19.75;100.00
63090;BME280;49174;43.198;27.824;2023-07-30T04:54:28;101316.97;;;19.83;100.00
63090;BME280;49174;43.198;27.824;2023-07-30T04:56:54;101320.72;;;19.94;100.00
63090;BME280;49174;43.198;27.824;2023-07-30T04:59:19;101320.25;;;19.97;100.00
63090;BME280;49174;43.198;27.824;2023-07-30T05:01:45;101325.59;;;20.03;100.00
63090;BME280;49174;43.198;27.824;2023-07-30T05:04:11;101319.22;;;20.15;100.00
63090;BME280;49174;43.198;27.824;2023-07-30T05:06:36;101319.97;;;20.27;100.00
63090;BME280;49174;43.198;27.824;2023-07-30T05:09:10;101322.88;;;20.37;100.00
63090;BME280;49174;43.198;27.824;2023-07-30T05:11:38;101323.63;;;20.49;100.00
63090;BME280;49174;43.198;27.824;2023-07-30T05:14:03;101328.22;;;20.61;100.00
63090;BME280;49174;43.198;27.824;2023-07-30T05:16:29;101326.16;;;20.68;100.00
63090;BME280;49174;43.198;27.824;2023-07-30T05:18:54;101322.09;;;20.70;100.00
63090;BME280;49174;43.198;27.824;2023-07-30T05:21:20;101332.38;;;20.80;100.00
63090;BME280;49174;43.198;27.824;2023-07-30T05:23:45;101335.72;;;20.82;100.00
63090;BME280;49174;43.198;27.824;2023-07-30T05:26:11;101326.72;;;20.87;100.00
63090;BME280;49174;43.198;27.824;2023-07-30T05:28:36;101332.03;;;20.93;100.00
63090;BME280;49174;43.198;27.824;2023-07-30T05:31:02;101325.53;;;21.00;100.00
63090;BME280;49174;43.198;27.824;2023-07-30T05:33:27;101331.41;;;21.08;100.00
63090;BME280;49174;43.198;27.824;2023-07-30T05:35:53;101333.81;;;21.22;100.00
63090;BME280;49174;43.198;27.824;2023-07-30T05:38:18;101340.25;;;21.32;100.00
63090;BME280;49174;43.198;27.824;2023-07-30T05:40:44;101339.59;;;21.42;100.00
63090;BME280;49174;43.198;27.824;2023-07-30T05:43:09;101342.75;;;21.51;100.00
63090;BME280;49174;43.198;27.824;2023-07-30T05:45:35;101347.75;;;21.59;100.00
63090;BME280;49174;43.198;27.824;2023-07-30T05:48:00;101346.25;;;21.68;100.00
63090;BME280;49174;43.198;27.824;2023-07-30T05:50:26;101341.31;;;21.70;100.00
63090;BME280;49174;43.198;27.824;2023-07-30T05:52:51;101337.84;;;21.80;100.00
63090;BME280;49174;43.198;27.824;2023-07-30T05:55:17;101341.56;;;21.91;100.00
63090;BME280;49174;43.198;27.824;2023-07-30T05:57:42;101345.75;;;21.98;100.00
63090;BME280;49174;43.198;27.824;2023-07-30T06:00:08;101338.44;;;22.09;100.00
63090;BME280;49174;43.198;27.824;2023-07-30T06:02:34;101342.41;;;22.18;100.00
63090;BME280;49174;43.198;27.824;2023-07-30T06:04:59;101337.34;;;22.32;99.99
63090;BME280;49174;43.198;27.824;2023-07-30T06:07:25;101338.81;;;22.45;99.51
63090;BME280;49174;43.198;27.824;2023-07-30T06:09:50;101339.16;;;22.53;97.72
63090;BME280;49174;43.198;27.824;2023-07-30T06:12:16;101328.75;;;22.61;99.12
63090;BME280;49174;43.198;27.824;2023-07-30T06:14:41;101332.16;;;22.73;98.57
63090;BME280;49174;43.198;27.824;2023-07-30T06:17:07;101337.72;;;22.83;97.73
63090;BME280;49174;43.198;27.824;2023-07-30T06:19:32;101338.72;;;22.99;97.47
63090;BME280;49174;43.198;27.824;2023-07-30T06:21:58;101339.97;;;23.29;94.24
63090;BME280;49174;43.198;27.824;2023-07-30T06:24:24;101336.75;;;23.47;92.20
63090;BME280;49174;43.198;27.824;2023-07-30T06:26:49;101334.06;;;23.62;88.44
63090;BME280;49174;43.198;27.824;2023-07-30T06:29:15;101334.44;;;23.86;85.34
63090;BME280;49174;43.198;27.824;2023-07-30T06:31:40;101335.59;;;24.11;85.91
63090;BME280;49174;43.198;27.824;2023-07-30T06:34:06;101329.28;;;24.36;86.03
63090;BME280;49174;43.198;27.824;2023-07-30T06:36:32;101327.09;;;24.64;82.88
63090;BME280;49174;43.198;27.824;2023-07-30T06:38:57;101332.88;;;24.83;81.16
63090;BME280;49174;43.198;27.824;2023-07-30T06:41:23;101335.84;;;25.07;82.33
63090;BME280;49174;43.198;27.824;2023-07-30T06:43:48;101332.78;;;25.29;80.14
63090;BME280;49174;43.198;27.824;2023-07-30T06:46:14;101331.88;;;25.49;80.06
63090;BME280;49174;43.198;27.824;2023-07-30T06:48:39;101333.19;;;25.67;78.15
63090;BME280;49174;43.198;27.824;2023-07-30T06:51:09;101319.84;;;25.79;79.48
63090;BME280;49174;43.198;27.824;2023-07-30T06:53:35;101317.53;;;26.01;79.46
63090;BME280;49174;43.198;27.824;2023-07-30T06:56:00;101315.16;;;26.24;79.06
63090;BME280;49174;43.198;27.824;2023-07-30T06:58:26;101321.94;;;26.42;75.42
63090;BME280;49174;43.198;27.824;2023-07-30T07:00:53;101321.81;;;26.57;76.72
63090;BME280;49174;43.198;27.824;2023-07-30T07:03:19;101308.09;;;26.76;75.87
63090;BME280;49174;43.198;27.824;2023-07-30T07:05:44;101309.00;;;26.95;75.39
63090;BME280;49174;43.198;27.824;2023-07-30T07:08:10;101309.06;;;27.14;70.78
63090;BME280;49174;43.198;27.824;2023-07-30T07:10:35;101310.91;;;27.24;71.60
63090;BME280;49174;43.198;27.824;2023-07-30T07:13:01;101308.63;;;27.31;71.44
63090;BME280;49174;43.198;27.824;2023-07-30T07:15:27;101299.59;;;27.45;71.62
63090;BME280;49174;43.198;27.824;2023-07-30T07:17:52;101301.34;;;27.59;71.75
63090;BME280;49174;43.198;27.824;2023-07-30T07:20:18;101312.72;;;27.77;69.35
63090;BME280;49174;43.198;27.824;2023-07-30T07:22:43;101313.91;;;27.95;69.65
63090;BME280;49174;43.198;27.824;2023-07-30T07:25:09;101303.97;;;28.07;69.20
63090;BME280;49174;43.198;27.824;2023-07-30T07:27:35;101304.97;;;28.17;67.63
63090;BME280;49174;43.198;27.824;2023-07-30T07:30:00;101305.38;;;28.24;65.01
63090;BME280;49174;43.198;27.824;2023-07-30T07:32:27;101301.94;;;28.32;65.53
63090;BME280;49174;43.198;27.824;2023-07-30T07:34:53;101307.34;;;28.42;67.44
63090;BME280;49174;43.198;27.824;2023-07-30T07:37:19;101306.66;;;28.50;65.53
63090;BME280;49174;43.198;27.824;2023-07-30T07:39:45;101305.09;;;28.58;66.30
63090;BME280;49174;43.198;27.824;2023-07-30T07:42:11;101298.75;;;28.71;66.67
63090;BME280;49174;43.198;27.824;2023-07-30T07:44:37;101303.72;;;28.88;66.55
63090;BME280;49174;43.198;27.824;2023-07-30T07:47:03;101294.88;;;29.00;63.53
63090;BME280;49174;43.198;27.824;2023-07-30T07:49:29;101295.53;;;29.11;62.34
63090;BME280;49174;43.198;27.824;2023-07-30T07:51:54;101282.59;;;29.20;61.36
63090;BME280;49174;43.198;27.824;2023-07-30T07:54:20;101288.88;;;29.26;62.22
63090;BME280;49174;43.198;27.824;2023-07-30T07:56:46;101280.63;;;29.34;60.51
63090;BME280;49174;43.198;27.824;2023-07-30T07:59:11;101275.66;;;29.45;61.24
63090;BME280;49174;43.198;27.824;2023-07-30T08:01:37;101282.94;;;29.55;59.98
63090;BME280;49174;43.198;27.824;2023-07-30T08:04:02;101280.28;;;29.64;60.16
63090;BME280;49174;43.198;27.824;2023-07-30T08:06:28;101280.50;;;29.67;58.90
63090;BME280;49174;43.198;27.824;2023-07-30T08:08:54;101279.22;;;29.73;61.26
63090;BME280;49174;43.198;27.824;2023-07-30T08:11:20;101277.34;;;29.82;57.85
63090;BME280;49174;43.198;27.824;2023-07-30T08:13:45;101271.72;;;29.96;57.41
63090;BME280;49174;43.198;27.824;2023-07-30T08:16:11;101279.50;;;30.08;54.39
63090;BME280;49174;43.198;27.824;2023-07-30T08:18:37;101288.38;;;30.10;55.21
63090;BME280;49174;43.198;27.824;2023-07-30T08:21:02;101273.69;;;30.18;54.51
63090;BME280;49174;43.198;27.824;2023-07-30T08:23:28;101287.59;;;30.18;55.27
63090;BME280;49174;43.198;27.824;2023-07-30T08:25:53;101279.78;;;30.20;54.41
63090;BME280;49174;43.198;27.824;2023-07-30T08:28:19;101284.94;;;30.13;54.12
63090;BME280;49174;43.198;27.824;2023-07-30T08:30:45;101283.19;;;30.17;56.33
63090;BME280;49174;43.198;27.824;2023-07-30T08:33:10;101277.38;;;30.27;53.86
63090;BME280;49174;43.198;27.824;2023-07-30T08:35:36;101284.66;;;30.37;53.71
63090;BME280;49174;43.198;27.824;2023-07-30T08:38:01;101281.41;;;30.44;54.94
63090;BME280;49174;43.198;27.824;2023-07-30T08:40:27;101281.28;;;30.49;54.11
63090;BME280;49174;43.198;27.824;2023-07-30T08:42:53;101277.56;;;30.54;53.85
63090;BME280;49174;43.198;27.824;2023-07-30T08:45:19;101280.00;;;30.55;53.54
63090;BME280;49174;43.198;27.824;2023-07-30T08:47:46;101278.38;;;30.54;55.36
63090;BME280;49174;43.198;27.824;2023-07-30T08:50:12;101281.72;;;30.65;54.12
63090;BME280;49174;43.198;27.824;2023-07-30T08:52:38;101282.22;;;30.76;54.72
63090;BME280;49174;43.198;27.824;2023-07-30T08:55:05;101278.56;;;30.89;52.71
63090;BME280;49174;43.198;27.824;2023-07-30T08:57:31;101280.16;;;30.81;53.01
63090;BME280;49174;43.198;27.824;2023-07-30T09:00:06;101277.75;;;30.88;56.08
63090;BME280;49174;43.198;27.824;2023-07-30T09:02:44;101268.22;;;30.89;51.62
63090;BME280;49174;43.198;27.824;2023-07-30T09:05:12;101269.38;;;30.88;53.64
63090;BME280;49174;43.198;27.824;2023-07-30T09:07:38;101271.00;;;30.81;55.12
63090;BME280;49174;43.198;27.824;2023-07-30T09:10:05;101264.91;;;30.79;55.17
63090;BME280;49174;43.198;27.824;2023-07-30T09:12:31;101255.44;;;30.80;54.55
63090;BME280;49174;43.198;27.824;2023-07-30T09:14:57;101263.59;;;30.76;55.89
63090;BME280;49174;43.198;27.824;2023-07-30T09:17:23;101258.50;;;30.78;56.56
63090;BME280;49174;43.198;27.824;2023-07-30T09:19:49;101252.44;;;30.76;56.04
63090;BME280;49174;43.198;27.824;2023-07-30T09:22:28;101257.16;;;30.76;56.93
63090;BME280;49174;43.198;27.824;2023-07-30T09:24:56;101256.34;;;30.75;56.45
63090;BME280;49174;43.198;27.824;2023-07-30T09:27:25;101249.84;;;30.80;57.22
63090;BME280;49174;43.198;27.824;2023-07-30T09:29:53;101246.53;;;30.78;55.03
63090;BME280;49174;43.198;27.824;2023-07-30T09:32:19;101252.88;;;30.69;53.90
63090;BME280;49174;43.198;27.824;2023-07-30T09:34:45;101251.59;;;30.76;58.42
63090;BME280;49174;43.198;27.824;2023-07-30T09:37:12;101253.16;;;30.82;56.22
63090;BME280;49174;43.198;27.824;2023-07-30T09:39:38;101243.75;;;30.78;57.08
63090;BME280;49174;43.198;27.824;2023-07-30T09:42:05;101243.00;;;30.86;57.28
63090;BME280;49174;43.198;27.824;2023-07-30T09:44:33;101246.97;;;30.93;56.39
63090;BME280;49174;43.198;27.824;2023-07-30T09:47:00;101240.22;;;30.94;56.90
63090;BME280;49174;43.198;27.824;2023-07-30T09:49:30;101244.19;;;31.02;56.76
63090;BME280;49174;43.198;27.824;2023-07-30T09:51:57;101242.91;;;31.08;57.56
63090;BME280;49174;43.198;27.824;2023-07-30T09:54:23;101249.97;;;31.14;55.36
63090;BME280;49174;43.198;27.824;2023-07-30T09:56:49;101244.75;;;31.22;58.62
63090;BME280;49174;43.198;27.824;2023-07-30T09:59:14;101243.66;;;31.40;56.49
63090;BME280;49174;43.198;27.824;2023-07-30T10:01:43;101237.59;;;31.55;55.38
63090;BME280;49174;43.198;27.824;2023-07-30T10:04:10;101237.75;;;31.68;54.52
63090;BME280;49174;43.198;27.824;2023-07-30T10:09:14;101232.69;;;31.52;53.33
63090;BME280;49174;43.198;27.824;2023-07-30T10:11:41;101228.72;;;31.53;54.76
63090;BME280;49174;43.198;27.824;2023-07-30T10:14:08;101235.31;;;31.57;55.33
63090;BME280;49174;43.198;27.824;2023-07-30T10:16:34;101228.91;;;31.66;56.88
63090;BME280;49174;43.198;27.824;2023-07-30T10:18:59;101230.38;;;31.72;55.50
63090;BME280;49174;43.198;27.824;2023-07-30T10:21:26;101228.56;;;31.76;54.64
63090;BME280;49174;43.198;27.824;2023-07-30T10:24:02;101233.84;;;31.77;55.49
63090;BME280;49174;43.198;27.824;2023-07-30T10:26:30;101225.31;;;31.82;56.03
63090;BME280;49174;43.198;27.824;2023-07-30T10:29:16;101225.13;;;31.88;54.43
63090;BME280;49174;43.198;27.824;2023-07-30T10:31:48;101220.69;;;31.87;54.06
63090;BME280;49174;43.198;27.824;2023-07-30T10:34:14;101224.78;;;31.89;57.73
63090;BME280;49174;43.198;27.824;2023-07-30T10:36:43;101223.03;;;31.93;55.61
63090;BME280;49174;43.198;27.824;2023-07-30T10:39:20;101223.16;;;31.88;55.70
63090;BME280;49174;43.198;27.824;2023-07-30T10:41:53;101218.06;;;31.90;55.81
63090;BME280;49174;43.198;27.824;2023-07-30T10:44:25;101222.53;;;31.91;55.86
63090;BME280;49174;43.198;27.824;2023-07-30T10:46:52;101226.78;;;31.80;56.49
63090;BME280;49174;43.198;27.824;2023-07-30T10:49:18;101224.63;;;31.86;55.91
63090;BME280;49174;43.198;27.824;2023-07-30T10:51:44;101215.63;;;31.97;55.17
63090;BME280;49174;43.198;27.824;2023-07-30T10:54:09;101216.63;;;32.01;57.01
63090;BME280;49174;43.198;27.824;2023-07-30T10:56:36;101207.41;;;32.10;54.50
63090;BME280;49174;43.198;27.824;2023-07-30T10:59:06;101212.78;;;32.15;54.44
63090;BME280;49174;43.198;27.824;2023-07-30T11:01:52;101206.75;;;32.13;53.68
63090;BME280;49174;43.198;27.824;2023-07-30T11:04:19;101207.75;;;31.99;55.54
63090;BME280;49174;43.198;27.824;2023-07-30T11:06:49;101214.13;;;32.00;55.29
63090;BME280;49174;43.198;27.824;2023-07-30T11:09:22;101210.69;;;31.86;53.66
63090;BME280;49174;43.198;27.824;2023-07-30T11:11:48;101214.47;;;31.64;54.62
63090;BME280;49174;43.198;27.824;2023-07-30T11:14:18;101201.50;;;31.50;55.22
63090;BME280;49174;43.198;27.824;2023-07-30T11:16:59;101201.69;;;31.54;54.20
63090;BME280;49174;43.198;27.824;2023-07-30T11:19:25;101196.75;;;31.59;55.50
63090;BME280;49174;43.198;27.824;2023-07-30T11:21:53;101202.34;;;31.59;54.40
63090;BME280;49174;43.198;27.824;2023-07-30T11:24:19;101196.25;;;31.57;55.26
63090;BME280;49174;43.198;27.824;2023-07-30T11:26:45;101196.56;;;31.56;52.29
63090;BME280;49174;43.198;27.824;2023-07-30T11:29:18;101192.97;;;31.64;51.36
63090;BME280;49174;43.198;27.824;2023-07-30T11:31:46;101195.28;;;31.71;51.14
63090;BME280;49174;43.198;27.824;2023-07-30T11:34:13;101186.59;;;31.55;53.86
63090;BME280;49174;43.198;27.824;2023-07-30T11:36:40;101193.47;;;31.57;55.53
63090;BME280;49174;43.198;27.824;2023-07-30T11:39:06;101195.91;;;31.68;55.08
63090;BME280;49174;43.198;27.824;2023-07-30T11:41:32;101185.41;;;31.82;54.42
63090;BME280;49174;43.198;27.824;2023-07-30T11:43:58;101192.66;;;31.92;54.07
63090;BME280;49174;43.198;27.824;2023-07-30T11:46:24;101194.47;;;31.79;53.75
63090;BME280;49174;43.198;27.824;2023-07-30T11:48:52;101193.16;;;31.76;53.17
63090;BME280;49174;43.198;27.824;2023-07-30T11:53:49;101180.34;;;31.41;53.77
63090;BME280;49174;43.198;27.824;2023-07-30T11:58:44;101181.81;;;31.55;50.58
63090;BME280;49174;43.198;27.824;2023-07-30T12:01:09;101185.41;;;31.65;51.10
63090;BME280;49174;43.198;27.824;2023-07-30T12:03:35;101184.44;;;31.69;52.25
63090;BME280;49174;43.198;27.824;2023-07-30T12:06:05;101175.75;;;31.71;47.55
63090;BME280;49174;43.198;27.824;2023-07-30T12:08:33;101175.59;;;31.58;51.27
63090;BME280;49174;43.198;27.824;2023-07-30T12:11:03;101165.59;;;31.57;48.54
63090;BME280;49174;43.198;27.824;2023-07-30T12:13:29;101166.72;;;31.56;48.30
63090;BME280;49174;43.198;27.824;2023-07-30T12:15:55;101170.66;;;31.55;47.12
63090;BME280;49174;43.198;27.824;2023-07-30T12:18:22;101161.81;;;31.53;46.80
63090;BME280;49174;43.198;27.824;2023-07-30T12:20:49;101165.41;;;31.45;46.68
63090;BME280;49174;43.198;27.824;2023-07-30T12:23:16;101163.09;;;31.30;48.80
63090;BME280;49174;43.198;27.824;2023-07-30T12:25:42;101162.28;;;31.29;47.52
63090;BME280;49174;43.198;27.824;2023-07-30T12:28:07;101152.91;;;31.25;46.72
63090;BME280;49174;43.198;27.824;2023-07-30T12:30:33;101148.00;;;31.13;47.43
63090;BME280;49174;43.198;27.824;2023-07-30T12:32:59;101150.47;;;31.15;47.48
63090;BME280;49174;43.198;27.824;2023-07-30T12:35:25;101145.34;;;31.08;46.81
63090;BME280;49174;43.198;27.824;2023-07-30T12:37:51;101146.00;;;31.05;46.74